Alfredo Vásquez Cobo International Airport

Airport
ICAO code: 
SKLT
IATA Code: 
LET
Summary
ICAO Region: 
CARSAM
Territory: 
Location: 
Leticia, Amazonas Department
Serving: 
Leticia
Elevation: 
277 ft
Coordinates: 
Aerial View: 
4° 11' 28.107" S, 69° 56' 29.084" W
Metar
Observation
SKLT 050800Z VRB02KT 9000 -RA BKN014 BKN080 24/24 Q1010 RMK A2982
Station
Leticia / Vasquez Cobo
Date/Time
2021-12-05 08:00:00
Wind speed
02 kts
Lowest cloud amount
broken clouds
Temperature
24°C
Dew point
24°C
Humidity
100%
QNH
1010 hPa
Weather condition
n/a

Alfredo Vásquez Cobo International Airport is an airport serving Leticia, the capital of the Amazonas Department of Colombia.

Climatology

Tropical rainforest climate (Köppen climate classification Af)

Runways

Designator Length Width Surface Rops
3/21 1880 40 ASP No/No
Airport map: 
Aerial View: 

SKYbrary Partners:

Safety knowledge contributed by: